createdAt,value
2018-06-03T00:00:53.902Z,86.59
2018-06-03T00:03:20.500Z,86.20
2018-06-03T00:05:47.070Z,87.47
2018-06-03T00:08:13.561Z,87.85
2018-06-03T00:10:40.024Z,88.61
2018-06-03T00:13:07.529Z,87.29
2018-06-03T00:15:33.944Z,88.57
2018-06-03T00:18:00.397Z,88.71
2018-06-03T00:20:39.082Z,89.22
2018-06-03T00:23:06.551Z,89.17
2018-06-03T00:25:32.970Z,87.97
2018-06-03T00:27:59.373Z,87.75
2018-06-03T00:30:25.821Z,89.24
2018-06-03T00:32:52.352Z,88.56
2018-06-03T00:35:18.886Z,88.53
2018-06-03T00:37:45.367Z,88.57
2018-06-03T00:40:11.820Z,89.59
2018-06-03T00:42:38.344Z,89.90
2018-06-03T00:45:04.823Z,90.12
2018-06-03T00:47:31.326Z,88.41
2018-06-03T00:49:57.943Z,89.26
2018-06-03T00:52:24.493Z,88.46
2018-06-03T00:54:51.024Z,87.77
2018-06-03T00:57:17.461Z,88.65
2018-06-03T00:59:43.837Z,89.31
2018-06-03T01:02:16.021Z,89.48
2018-06-03T01:04:42.476Z,89.82
2018-06-03T01:07:08.924Z,90.69
2018-06-03T01:09:35.415Z,90.90
2018-06-03T01:12:05.463Z,89.63
2018-06-03T01:14:31.900Z,88.80
2018-06-03T01:16:58.426Z,89.50
2018-06-03T01:19:24.951Z,90.88
2018-06-03T01:21:51.440Z,91.44
2018-06-03T01:24:17.950Z,91.01
2018-06-03T01:26:44.362Z,90.93
2018-06-03T01:29:10.799Z,90.10
2018-06-03T01:31:37.261Z,89.72
2018-06-03T01:34:21.150Z,90.44
2018-06-03T01:36:47.628Z,90.86
2018-06-03T01:39:14.136Z,91.52
2018-06-03T01:41:40.592Z,90.72
2018-06-03T01:44:07.189Z,91.14
2018-06-03T01:46:33.621Z,91.11
2018-06-03T01:49:00.048Z,90.22
2018-06-03T01:51:26.488Z,90.91
2018-06-03T01:53:53.048Z,92.39
2018-06-03T01:56:19.617Z,91.41
2018-06-03T01:58:46.137Z,92.67
2018-06-03T02:01:12.647Z,91.28
2018-06-03T02:03:39.086Z,93.40
2018-06-03T02:06:05.518Z,93.00
2018-06-03T02:08:31.996Z,91.76
2018-06-03T02:10:58.381Z,91.69
2018-06-03T02:13:24.964Z,91.17
2018-06-03T02:15:51.453Z,92.32
2018-06-03T02:18:17.862Z,92.21
2018-06-03T02:20:44.409Z,92.77
2018-06-03T02:23:11.877Z,91.96
2018-06-03T02:25:38.341Z,92.42
2018-06-03T02:28:04.732Z,92.87
2018-06-03T02:30:31.150Z,91.99
2018-06-03T02:32:57.733Z,92.50
2018-06-03T02:35:24.121Z,92.38
2018-06-03T02:37:50.546Z,91.77
2018-06-03T02:40:17.021Z,92.76
2018-06-03T02:42:43.476Z,94.00
2018-06-03T02:45:09.900Z,94.29
2018-06-03T02:47:36.284Z,94.60
2018-06-03T02:50:02.798Z,93.22
2018-06-03T02:52:30.243Z,92.07
2018-06-03T02:54:56.644Z,92.33
2018-06-03T02:57:23.122Z,92.84
2018-06-03T02:59:49.542Z,92.96
2018-06-03T03:02:16.106Z,93.42
2018-06-03T03:04:42.665Z,92.85
2018-06-03T03:07:09.098Z,91.99
2018-06-03T03:09:35.565Z,92.83
2018-06-03T03:12:02.094Z,92.12
2018-06-03T03:14:29.552Z,92.10
2018-06-03T03:16:55.999Z,90.65
2018-06-03T03:19:22.413Z,87.63
2018-06-03T03:21:48.919Z,84.43
2018-06-03T03:24:16.499Z,82.14
2018-06-03T03:26:43.138Z,79.10
2018-06-03T03:29:09.657Z,78.44
2018-06-03T03:31:36.115Z,78.71
2018-06-03T03:34:02.653Z,79.20
2018-06-03T03:36:29.164Z,77.99
2018-06-03T03:38:55.584Z,81.33
2018-06-03T03:41:22.196Z,80.26
2018-06-03T03:43:58.892Z,81.14
2018-06-03T03:46:25.467Z,81.56
2018-06-03T03:48:51.943Z,82.09
2018-06-03T03:51:18.337Z,83.40
2018-06-03T03:53:51.478Z,84.55
2018-06-03T03:56:17.976Z,82.29
2018-06-03T03:58:44.425Z,83.27
2018-06-03T04:01:10.860Z,83.44
2018-06-03T04:03:37.865Z,84.67
2018-06-03T04:06:04.401Z,85.44
2018-06-03T04:08:31.180Z,84.79
2018-06-03T04:10:57.643Z,83.66
2018-06-03T04:13:24.181Z,82.75
2018-06-03T04:15:50.662Z,81.88
2018-06-03T04:18:17.114Z,83.65
2018-06-03T04:20:44.018Z,82.63
2018-06-03T04:23:10.524Z,82.20
2018-06-03T04:25:37.080Z,84.18
2018-06-03T04:28:03.573Z,82.64
2018-06-03T04:30:29.961Z,80.36
2018-06-03T04:32:56.479Z,76.83
2018-06-03T04:35:22.871Z,72.38
2018-06-03T04:37:49.489Z,71.28
2018-06-03T04:40:16.546Z,68.42
2018-06-03T04:42:43.308Z,67.97
2018-06-03T04:45:09.929Z,69.84
2018-06-03T04:47:36.944Z,71.29
2018-06-03T04:50:03.699Z,71.80
2018-06-03T04:52:30.127Z,69.41
2018-06-03T04:54:56.607Z,70.52
2018-06-03T04:57:23.048Z,65.90
2018-06-03T04:59:49.771Z,66.78
2018-06-03T05:02:17.076Z,66.63
2018-06-03T05:04:44.480Z,70.43
2018-06-03T05:07:11.214Z,69.46
2018-06-03T05:09:38.169Z,67.65
2018-06-03T05:12:04.759Z,65.96
2018-06-03T05:14:31.255Z,65.20
2018-06-03T05:16:58.214Z,68.46
2018-06-03T05:19:24.959Z,67.14
2018-06-03T05:21:51.680Z,67.07
2018-06-03T05:24:18.519Z,65.46
2018-06-03T05:26:45.296Z,65.33
2018-06-03T05:29:11.767Z,65.89
2018-06-03T05:31:38.182Z,65.21
2018-06-03T05:34:04.636Z,64.95
2018-06-03T05:36:31.337Z,63.20
2018-06-03T05:38:57.778Z,63.57
2018-06-03T05:41:24.251Z,65.51
2018-06-03T05:43:50.736Z,61.49
2018-06-03T05:46:17.156Z,64.42
2018-06-03T05:48:43.674Z,62.73
2018-06-03T05:51:10.483Z,61.80
2018-06-03T05:53:37.003Z,66.21
2018-06-03T05:56:03.472Z,63.38
2018-06-03T05:58:29.953Z,60.83
2018-06-03T06:00:56.407Z,63.37
2018-06-03T06:03:24.138Z,62.49
2018-06-03T06:05:50.576Z,62.62
2018-06-03T06:08:17.116Z,61.15
2018-06-03T06:10:43.551Z,57.91
2018-06-03T06:13:10.102Z,57.97
2018-06-03T06:15:36.574Z,57.34
2018-06-03T06:18:03.343Z,57.19
2018-06-03T06:20:30.401Z,58.38
2018-06-03T06:22:57.852Z,56.67
2018-06-03T06:25:24.479Z,58.59
2018-06-03T06:27:51.802Z,58.27
2018-06-03T06:30:18.984Z,57.12
2018-06-03T06:32:46.308Z,57.05
2018-06-03T06:35:13.166Z,55.41
2018-06-03T06:37:39.680Z,54.18
2018-06-03T06:40:06.263Z,56.33
2018-06-03T06:42:32.723Z,55.02
2018-06-03T06:44:59.245Z,55.23
2018-06-03T06:47:25.674Z,52.41
2018-06-03T06:49:52.319Z,54.89
2018-06-03T06:52:18.882Z,55.12
2018-06-03T06:54:46.627Z,57.12
2018-06-03T06:57:13.271Z,55.45
2018-06-03T06:59:40.435Z,56.43
2018-06-03T07:02:07.379Z,57.11
2018-06-03T07:04:38.834Z,58.25
2018-06-03T07:07:05.980Z,59.56
2018-06-03T07:09:32.672Z,58.30
2018-06-03T07:11:59.245Z,57.50
2018-06-03T07:14:26.987Z,59.93
2018-06-03T07:16:53.648Z,57.86
2018-06-03T07:19:20.265Z,58.56
2018-06-03T07:21:46.916Z,58.10
2018-06-03T07:24:14.154Z,57.87
2018-06-03T07:26:41.230Z,60.33
2018-06-03T07:29:07.915Z,57.42
2018-06-03T07:31:34.565Z,55.91
2018-06-03T07:34:02.255Z,60.28
2018-06-03T07:36:28.781Z,59.67
2018-06-03T07:38:55.336Z,56.20
2018-06-03T07:41:21.918Z,55.67
2018-06-03T07:43:49.667Z,59.93
2018-06-03T07:46:16.456Z,56.26
2018-06-03T07:48:43.123Z,55.35
2018-06-03T07:51:09.798Z,56.50
2018-06-03T07:53:38.995Z,57.75
2018-06-03T07:56:05.919Z,57.41
2018-06-03T07:58:33.170Z,51.83
2018-06-03T08:00:59.936Z,51.59
2018-06-03T08:03:27.052Z,52.13
2018-06-03T08:05:53.805Z,53.18
2018-06-03T08:08:20.666Z,48.10
2018-06-03T08:10:47.789Z,46.03
2018-06-03T08:13:15.031Z,41.62
2018-06-03T08:15:42.193Z,40.45
2018-06-03T08:18:09.115Z,43.35
2018-06-03T08:20:36.070Z,45.12
2018-06-03T08:23:03.529Z,44.64
2018-06-03T08:25:30.383Z,44.64
2018-06-03T08:27:57.530Z,43.31
2018-06-03T08:30:24.421Z,45.40
2018-06-03T08:32:51.354Z,45.57
2018-06-03T08:35:18.290Z,46.39
2018-06-03T08:37:45.408Z,46.72
2018-06-03T08:40:11.952Z,47.66
2018-06-03T08:42:38.759Z,48.92
2018-06-03T08:45:06.514Z,50.19
2018-06-03T08:47:33.115Z,49.55
2018-06-03T08:50:00.153Z,49.69
2018-06-03T08:52:27.933Z,52.47
2018-06-03T08:54:55.603Z,49.63
2018-06-03T08:57:22.432Z,51.40
2018-06-03T08:59:50.286Z,50.12
2018-06-03T09:02:17.093Z,49.47
2018-06-03T09:04:44.346Z,50.37
2018-06-03T09:07:11.373Z,49.31
2018-06-03T09:09:37.898Z,49.48
2018-06-03T09:12:07.597Z,48.19
2018-06-03T09:14:35.963Z,51.95
2018-06-03T09:17:02.866Z,46.57
2018-06-03T09:19:29.706Z,48.45
2018-06-03T09:21:56.864Z,45.54
2018-06-03T09:24:23.960Z,42.40
2018-06-03T09:26:50.725Z,42.28
2018-06-03T09:29:17.837Z,46.90
2018-06-03T09:31:46.426Z,45.21
2018-06-03T09:34:13.464Z,45.37
2018-06-03T09:36:40.911Z,42.17
2018-06-03T09:39:08.490Z,43.32
2018-06-03T09:41:35.553Z,43.46
2018-06-03T09:44:02.719Z,48.78
2018-06-03T09:46:30.000Z,40.20
2018-06-03T09:48:57.775Z,41.12
2018-06-03T09:51:24.978Z,40.88
2018-06-03T09:53:52.006Z,38.22
2018-06-03T09:56:19.334Z,39.72
2018-06-03T09:58:45.981Z,36.63
2018-06-03T10:01:13.102Z,37.81
2018-06-03T10:03:39.743Z,37.84
2018-06-03T10:06:06.896Z,41.34
2018-06-03T10:08:34.012Z,39.54
2018-06-03T10:11:01.120Z,36.13
2018-06-03T10:13:28.164Z,37.72
2018-06-03T10:15:54.840Z,32.09
2018-06-03T10:18:21.334Z,32.14
2018-06-03T10:20:47.821Z,34.81
2018-06-03T10:23:14.407Z,33.19
2018-06-03T10:25:40.945Z,32.69
2018-06-03T10:28:07.431Z,38.17
2018-06-03T10:30:34.014Z,33.09
2018-06-03T10:33:00.465Z,34.45
2018-06-03T10:35:27.293Z,34.18
2018-06-03T10:37:54.541Z,34.43
2018-06-03T10:40:21.100Z,35.62
2018-06-03T10:42:47.597Z,33.49
2018-06-03T10:45:14.083Z,31.66
2018-06-03T10:47:40.722Z,31.20
2018-06-03T10:50:07.289Z,31.54
2018-06-03T10:52:33.788Z,31.20
2018-06-03T10:55:00.454Z,29.42
2018-06-03T10:57:26.888Z,30.53
2018-06-03T10:59:53.436Z,32.72
2018-06-03T11:02:20.083Z,32.84
2018-06-03T11:04:46.759Z,35.46
2018-06-03T11:07:13.313Z,33.63
2018-06-03T11:09:39.860Z,34.21
2018-06-03T11:12:06.565Z,33.99
2018-06-03T11:14:35.325Z,35.32
2018-06-03T11:17:02.222Z,35.37
2018-06-03T11:19:28.988Z,39.25
2018-06-03T11:21:55.677Z,39.78
2018-06-03T11:24:28.466Z,41.44
2018-06-03T11:26:55.061Z,41.21
2018-06-03T11:29:21.639Z,42.20
2018-06-03T11:31:48.227Z,42.00
2018-06-03T11:34:14.905Z,42.46
2018-06-03T11:36:41.470Z,40.29
2018-06-03T11:39:09.623Z,39.90
2018-06-03T11:41:36.496Z,39.72
2018-06-03T11:44:03.379Z,40.77
2018-06-03T11:46:30.196Z,41.73
2018-06-03T11:48:56.794Z,37.91
2018-06-03T11:51:23.476Z,37.42
2018-06-03T11:53:54.418Z,35.82
2018-06-03T11:56:27.119Z,36.03
2018-06-03T11:59:00.382Z,36.34
2018-06-03T12:01:31.302Z,38.54
2018-06-03T12:03:58.513Z,39.07
2018-06-03T12:06:25.398Z,35.75
2018-06-03T12:08:52.160Z,39.34
2018-06-03T12:11:19.310Z,38.86
2018-06-03T12:13:47.163Z,38.81
2018-06-03T12:16:14.142Z,39.91
2018-06-03T12:18:41.246Z,38.64
2018-06-03T12:21:08.038Z,38.89
2018-06-03T12:23:34.620Z,39.93
2018-06-03T12:26:01.330Z,39.55
2018-06-03T12:28:28.284Z,39.42
2018-06-03T12:30:55.109Z,38.66
2018-06-03T12:33:21.767Z,36.62
2018-06-03T12:35:48.520Z,38.13
2018-06-03T12:38:15.077Z,38.52
2018-06-03T12:40:41.642Z,37.02
2018-06-03T12:43:08.344Z,37.02
2018-06-03T12:45:34.991Z,36.29
2018-06-03T12:48:01.566Z,37.78
2018-06-03T12:50:28.354Z,39.64
2018-06-03T12:52:54.991Z,39.97
2018-06-03T12:55:25.169Z,41.29
2018-06-03T12:57:52.205Z,40.54
2018-06-03T13:00:18.783Z,40.93
2018-06-03T13:02:45.423Z,44.88
2018-06-03T13:05:12.006Z,44.77
2018-06-03T13:07:38.595Z,48.67
2018-06-03T13:10:05.192Z,49.21
2018-06-03T13:12:32.207Z,52.42
2018-06-03T13:14:59.257Z,53.23
2018-06-03T13:17:26.240Z,52.13
2018-06-03T13:19:52.838Z,53.87
2018-06-03T13:22:19.743Z,56.27
2018-06-03T13:24:46.965Z,54.91
2018-06-03T13:27:14.267Z,53.67
2018-06-03T13:29:41.138Z,50.75
2018-06-03T13:32:07.851Z,54.58
2018-06-03T13:34:34.397Z,54.49
2018-06-03T13:37:01.093Z,52.64
2018-06-03T13:39:27.968Z,54.24
2018-06-03T13:41:54.634Z,56.96
2018-06-03T13:45:13.992Z,61.02
2018-06-03T13:47:43.505Z,69.98
2018-06-03T13:50:13.056Z,69.46
2018-06-03T13:52:42.236Z,70.64
2018-06-03T13:55:11.569Z,71.90
2018-06-03T13:57:40.599Z,69.19
2018-06-03T14:00:09.580Z,72.51
2018-06-03T14:02:38.227Z,71.42
2018-06-03T14:05:06.861Z,76.34
2018-06-03T14:07:36.073Z,72.73
2018-06-03T14:10:05.303Z,77.96
2018-06-03T14:12:34.180Z,78.76
2018-06-03T14:15:02.524Z,80.84
2018-06-03T14:17:31.201Z,81.44
2018-06-03T14:20:00.320Z,79.63
2018-06-03T14:22:28.724Z,80.02
2018-06-03T14:24:57.406Z,81.73
2018-06-03T14:27:26.326Z,81.01
2018-06-03T14:29:55.110Z,81.44
2018-06-03T14:32:25.292Z,81.07
2018-06-03T14:34:54.314Z,82.62
2018-06-03T14:37:23.237Z,82.23
2018-06-03T14:39:51.843Z,83.74
2018-06-03T14:42:20.618Z,83.19
2018-06-03T14:44:49.439Z,83.60
2018-06-03T14:47:18.304Z,83.33
2018-06-03T14:49:47.133Z,84.46
2018-06-03T14:52:15.851Z,84.61
2018-06-03T14:54:44.036Z,84.51
2018-06-03T14:57:12.255Z,84.12
2018-06-03T14:59:40.642Z,83.98
2018-06-03T15:02:08.965Z,86.70
2018-06-03T15:04:37.498Z,85.96
2018-06-03T15:07:05.690Z,86.46
2018-06-03T15:09:34.064Z,86.35
2018-06-03T15:12:02.274Z,87.26
2018-06-03T15:14:30.573Z,85.38
2018-06-03T15:16:58.913Z,87.11
2018-06-03T15:19:27.302Z,86.37
2018-06-03T15:21:55.432Z,84.20
2018-06-03T15:24:23.613Z,84.80
2018-06-03T15:26:51.665Z,85.43
2018-06-03T15:29:19.842Z,83.76
2018-06-03T15:31:47.801Z,83.39
2018-06-03T15:34:15.755Z,81.67
2018-06-03T15:36:43.867Z,81.29
2018-06-03T15:39:12.044Z,81.98
2018-06-03T15:41:40.143Z,86.09
2018-06-03T15:44:08.191Z,83.76
2018-06-03T15:46:36.311Z,85.03
2018-06-03T15:49:04.494Z,80.48
2018-06-03T15:51:32.733Z,80.80
2018-06-03T15:54:01.104Z,83.16
2018-06-03T15:56:29.151Z,83.57
2018-06-03T15:58:57.151Z,79.67
2018-06-03T16:01:25.173Z,79.19
2018-06-03T16:03:53.180Z,80.63
2018-06-03T16:06:21.336Z,83.32
2018-06-03T16:08:49.410Z,75.63
2018-06-03T16:11:17.793Z,74.56
2018-06-03T16:13:45.968Z,80.97
2018-06-03T16:16:14.057Z,81.37
2018-06-03T16:18:42.206Z,76.45
2018-06-03T16:21:10.355Z,78.31
2018-06-03T16:23:38.410Z,83.01
2018-06-03T16:26:06.510Z,84.77
2018-06-03T16:28:34.629Z,84.53
2018-06-03T16:31:02.848Z,85.42
2018-06-03T16:33:31.068Z,87.73
2018-06-03T16:35:59.209Z,88.15
2018-06-03T16:38:27.352Z,88.70
2018-06-03T16:40:55.464Z,88.06
2018-06-03T16:43:23.584Z,89.01
2018-06-03T16:45:51.829Z,88.88
2018-06-03T16:48:20.294Z,88.97
2018-06-03T16:50:48.871Z,90.24
2018-06-03T16:53:17.156Z,90.29
2018-06-03T16:55:45.292Z,89.07
2018-06-03T16:58:13.389Z,89.76
2018-06-03T17:00:41.561Z,89.03
2018-06-03T17:03:09.714Z,89.48
2018-06-03T17:05:37.787Z,90.50
2018-06-03T17:08:06.054Z,91.31
2018-06-03T17:10:34.222Z,88.88
2018-06-03T17:13:02.327Z,90.92
2018-06-03T17:15:30.586Z,90.53
2018-06-03T17:17:58.956Z,92.13
2018-06-03T17:20:27.194Z,90.84
2018-06-03T17:22:55.370Z,89.52
2018-06-03T17:25:23.433Z,91.18
2018-06-03T17:27:51.644Z,90.67
2018-06-03T17:30:20.050Z,90.46
2018-06-03T17:32:48.241Z,90.70
2018-06-03T17:35:16.390Z,92.78
2018-06-03T17:37:44.553Z,92.38
2018-06-03T17:40:12.676Z,92.22
2018-06-03T17:42:40.873Z,91.84
2018-06-03T17:45:09.076Z,93.76
2018-06-03T17:47:37.246Z,93.36
2018-06-03T17:50:05.824Z,91.92
2018-06-03T17:52:34.267Z,91.39
2018-06-03T17:55:02.461Z,92.55
2018-06-03T17:57:30.782Z,93.47
2018-06-03T17:59:59.210Z,93.12
2018-06-03T18:02:27.392Z,93.73
2018-06-03T18:04:55.857Z,94.90
2018-06-03T18:07:24.308Z,95.23
2018-06-03T18:09:52.566Z,94.10
2018-06-03T18:12:20.764Z,94.40
2018-06-03T18:14:48.911Z,94.63
2018-06-03T18:17:17.271Z,93.92
2018-06-03T18:19:45.639Z,94.07
2018-06-03T18:22:13.700Z,94.17
2018-06-03T18:24:41.826Z,93.64
2018-06-03T18:27:10.364Z,93.95
2018-06-03T18:29:38.648Z,94.75
2018-06-03T18:32:07.105Z,95.22
2018-06-03T18:34:35.584Z,94.57
2018-06-03T18:37:03.741Z,92.37
2018-06-03T18:39:31.963Z,94.02
2018-06-03T18:42:00.632Z,94.44
2018-06-03T18:44:28.863Z,94.05
2018-06-03T18:46:57.232Z,95.66
2018-06-03T18:49:25.698Z,94.45
2018-06-03T18:51:54.070Z,91.35
2018-06-03T18:54:22.241Z,90.97
2018-06-03T18:56:50.426Z,94.04
2018-06-03T18:59:18.622Z,95.26
2018-06-03T19:01:46.896Z,94.67
2018-06-03T19:04:15.005Z,94.34
2018-06-03T19:06:43.244Z,95.07
2018-06-03T19:09:11.423Z,95.71
2018-06-03T19:11:39.638Z,94.74
2018-06-03T19:14:07.744Z,95.14
2018-06-03T19:16:35.810Z,95.31
2018-06-03T19:19:03.977Z,93.84
2018-06-03T19:21:32.213Z,95.07
2018-06-03T19:24:00.466Z,94.76
2018-06-03T19:26:28.635Z,95.05
2018-06-03T19:28:56.741Z,94.67
2018-06-03T19:31:24.795Z,95.83
2018-06-03T19:33:52.927Z,95.23
2018-06-03T19:36:21.316Z,94.41
2018-06-03T19:38:49.358Z,94.94
2018-06-03T19:41:17.464Z,94.09
2018-06-03T19:43:45.872Z,94.62
2018-06-03T19:46:14.102Z,93.85
2018-06-03T19:48:42.210Z,94.71
2018-06-03T19:51:10.444Z,95.00
2018-06-03T19:53:38.605Z,94.93
2018-06-03T19:56:06.655Z,95.54
2018-06-03T19:58:34.759Z,95.91
2018-06-03T20:01:02.844Z,95.33
2018-06-03T20:03:30.861Z,96.27
2018-06-03T20:05:59.093Z,94.96
2018-06-03T20:08:27.096Z,96.29
2018-06-03T20:10:55.172Z,97.02
2018-06-03T20:13:23.313Z,96.75
2018-06-03T20:15:51.443Z,97.23
2018-06-03T20:18:19.557Z,96.93
2018-06-03T20:20:47.611Z,96.79
2018-06-03T20:23:15.584Z,97.75
2018-06-03T20:25:43.596Z,97.78
2018-06-03T20:28:11.710Z,97.45
2018-06-03T20:30:39.770Z,97.48
2018-06-03T20:33:07.789Z,98.18
2018-06-03T20:35:35.884Z,97.78
2018-06-03T20:38:03.983Z,98.68
2018-06-03T20:40:32.009Z,97.92
2018-06-03T20:43:00.094Z,98.63
2018-06-03T20:45:28.219Z,97.78
2018-06-03T20:47:56.214Z,97.40
2018-06-03T20:50:24.276Z,98.17
2018-06-03T20:52:52.334Z,98.47
2018-06-03T20:55:20.385Z,97.88
2018-06-03T20:57:48.658Z,99.23
2018-06-03T21:00:16.699Z,98.40
2018-06-03T21:02:44.851Z,98.39
2018-06-03T21:05:12.954Z,99.34
2018-06-03T21:07:40.947Z,99.21
2018-06-03T21:10:08.939Z,99.34
2018-06-03T21:12:37.040Z,99.07
2018-06-03T21:15:05.105Z,99.95
2018-06-03T21:17:33.056Z,98.84
2018-06-03T21:20:01.056Z,98.87
2018-06-03T21:22:29.132Z,99.35
2018-06-03T21:24:57.385Z,98.53
2018-06-03T21:27:25.521Z,98.80
2018-06-03T21:29:53.614Z,98.99
2018-06-03T21:32:21.829Z,99.51
2018-06-03T21:34:49.944Z,98.82
2018-06-03T21:37:18.143Z,98.88
2018-06-03T21:39:46.210Z,98.83
2018-06-03T21:42:14.305Z,98.78
2018-06-03T21:44:42.400Z,98.52
2018-06-03T21:47:10.459Z,99.69
2018-06-03T21:49:38.534Z,98.84
2018-06-03T21:52:06.607Z,100.00
2018-06-03T21:54:34.616Z,99.90
2018-06-03T21:57:02.636Z,100.00
2018-06-03T21:59:30.656Z,100.00
2018-06-03T22:01:58.709Z,100.00
2018-06-03T22:04:26.783Z,99.23
2018-06-03T22:06:54.922Z,99.26
2018-06-03T22:09:23.021Z,100.00
2018-06-03T22:11:51.104Z,99.55
2018-06-03T22:14:19.058Z,100.00
2018-06-03T22:16:47.090Z,100.00
2018-06-03T22:19:15.121Z,99.75
2018-06-03T22:21:43.088Z,100.00
2018-06-03T22:24:11.140Z,100.00
2018-06-03T22:26:39.172Z,100.00
2018-06-03T22:29:07.230Z,99.96
2018-06-03T22:31:35.269Z,100.00
2018-06-03T22:34:03.257Z,99.55
2018-06-03T22:36:31.304Z,100.00
2018-06-03T22:38:59.393Z,100.00
2018-06-03T22:41:27.344Z,100.00
2018-06-03T22:43:55.341Z,100.00
2018-06-03T22:46:23.425Z,100.00
2018-06-03T22:48:51.514Z,100.00
2018-06-03T22:51:19.668Z,100.00
2018-06-03T22:53:47.725Z,100.00
2018-06-03T22:56:15.689Z,100.00
2018-06-03T22:58:43.712Z,100.00
2018-06-03T23:01:11.774Z,100.00
2018-06-03T23:03:39.763Z,100.00
2018-06-03T23:06:07.849Z,100.00
2018-06-03T23:08:35.873Z,100.00
2018-06-03T23:11:03.864Z,100.00
2018-06-03T23:13:31.910Z,100.00
2018-06-03T23:15:59.847Z,100.00
2018-06-03T23:18:27.909Z,100.00
2018-06-03T23:20:55.899Z,100.00
2018-06-03T23:23:23.897Z,100.00
2018-06-03T23:25:52.006Z,100.00
2018-06-03T23:28:19.992Z,100.00
2018-06-03T23:30:47.974Z,100.00
2018-06-03T23:33:16.059Z,100.00
2018-06-03T23:35:44.083Z,99.97
2018-06-03T23:38:12.092Z,100.00
2018-06-03T23:40:40.112Z,100.00
2018-06-03T23:43:08.077Z,100.00
2018-06-03T23:45:36.130Z,100.00
2018-06-03T23:48:04.175Z,100.00
2018-06-03T23:50:32.165Z,100.00
2018-06-03T23:53:00.175Z,100.00
2018-06-03T23:55:28.232Z,100.00
2018-06-03T23:57:56.256Z,100.00
